sensor_id;sensor_type;location;lat;lon;timestamp;P1;durP1;ratioP1;P2;durP2;ratioP2
36593;SDS011;22603;47.900;8.146;2023-12-20T00:00:46;0.50;;;0.40;;
36593;SDS011;22603;47.900;8.146;2023-12-20T00:03:33;0.30;;;0.30;;
36593;SDS011;22603;47.900;8.146;2023-12-20T00:06:27;0.37;;;0.37;;
36593;SDS011;22603;47.900;8.146;2023-12-20T00:09:13;0.90;;;0.50;;
36593;SDS011;22603;47.900;8.146;2023-12-20T00:12:00;0.30;;;0.30;;
36593;SDS011;22603;47.900;8.146;2023-12-20T00:14:46;1.17;;;0.40;;
36593;SDS011;22603;47.900;8.146;2023-12-20T00:17:35;0.77;;;0.60;;
36593;SDS011;22603;47.900;8.146;2023-12-20T00:20:21;0.73;;;0.50;;
36593;SDS011;22603;47.900;8.146;2023-12-20T00:23:08;0.40;;;0.40;;
36593;SDS011;22603;47.900;8.146;2023-12-20T00:25:54;0.40;;;0.40;;
36593;SDS011;22603;47.900;8.146;2023-12-20T00:28:41;0.47;;;0.47;;
36593;SDS011;22603;47.900;8.146;2023-12-20T00:31:28;0.40;;;0.40;;
36593;SDS011;22603;47.900;8.146;2023-12-20T00:34:16;0.40;;;0.40;;
36593;SDS011;22603;47.900;8.146;2023-12-20T00:37:03;0.87;;;0.50;;
36593;SDS011;22603;47.900;8.146;2023-12-20T00:39:51;0.40;;;0.40;;
36593;SDS011;22603;47.900;8.146;2023-12-20T00:42:38;0.50;;;0.40;;
36593;SDS011;22603;47.900;8.146;2023-12-20T00:45:25;0.63;;;0.37;;
36593;SDS011;22603;47.900;8.146;2023-12-20T00:48:11;0.43;;;0.43;;
36593;SDS011;22603;47.900;8.146;2023-12-20T00:51:00;0.30;;;0.30;;
36593;SDS011;22603;47.900;8.146;2023-12-20T00:53:49;0.40;;;0.40;;
36593;SDS011;22603;47.900;8.146;2023-12-20T00:56:39;0.37;;;0.37;;
36593;SDS011;22603;47.900;8.146;2023-12-20T00:59:26;0.30;;;0.30;;
36593;SDS011;22603;47.900;8.146;2023-12-20T01:02:13;0.47;;;0.30;;
36593;SDS011;22603;47.900;8.146;2023-12-20T01:05:00;0.40;;;0.40;;
36593;SDS011;22603;47.900;8.146;2023-12-20T01:07:47;1.07;;;0.40;;
36593;SDS011;22603;47.900;8.146;2023-12-20T01:10:34;0.50;;;0.50;;
36593;SDS011;22603;47.900;8.146;2023-12-20T01:13:21;0.30;;;0.30;;
36593;SDS011;22603;47.900;8.146;2023-12-20T01:16:10;0.50;;;0.50;;
36593;SDS011;22603;47.900;8.146;2023-12-20T01:18:56;0.30;;;0.30;;
36593;SDS011;22603;47.900;8.146;2023-12-20T01:21:43;0.40;;;0.40;;
36593;SDS011;22603;47.900;8.146;2023-12-20T01:24:31;0.30;;;0.30;;
36593;SDS011;22603;47.900;8.146;2023-12-20T01:27:18;0.40;;;0.33;;
36593;SDS011;22603;47.900;8.146;2023-12-20T01:30:05;0.40;;;0.40;;
36593;SDS011;22603;47.900;8.146;2023-12-20T01:32:52;0.37;;;0.37;;
36593;SDS011;22603;47.900;8.146;2023-12-20T01:35:39;0.40;;;0.40;;
36593;SDS011;22603;47.900;8.146;2023-12-20T01:38:26;0.30;;;0.30;;
36593;SDS011;22603;47.900;8.146;2023-12-20T01:41:14;0.30;;;0.30;;
36593;SDS011;22603;47.900;8.146;2023-12-20T01:44:01;0.40;;;0.40;;
36593;SDS011;22603;47.900;8.146;2023-12-20T01:46:49;0.30;;;0.30;;
36593;SDS011;22603;47.900;8.146;2023-12-20T01:49:35;0.30;;;0.30;;
36593;SDS011;22603;47.900;8.146;2023-12-20T01:52:23;0.30;;;0.30;;
36593;SDS011;22603;47.900;8.146;2023-12-20T01:55:11;0.30;;;0.30;;
36593;SDS011;22603;47.900;8.146;2023-12-20T01:58:01;0.30;;;0.30;;
36593;SDS011;22603;47.900;8.146;2023-12-20T02:00:49;0.30;;;0.30;;
36593;SDS011;22603;47.900;8.146;2023-12-20T02:03:37;0.20;;;0.20;;
36593;SDS011;22603;47.900;8.146;2023-12-20T02:06:24;0.30;;;0.30;;
36593;SDS011;22603;47.900;8.146;2023-12-20T02:09:16;0.20;;;0.20;;
36593;SDS011;22603;47.900;8.146;2023-12-20T02:12:02;0.30;;;0.30;;
36593;SDS011;22603;47.900;8.146;2023-12-20T02:14:51;0.20;;;0.20;;
36593;SDS011;22603;47.900;8.146;2023-12-20T02:17:38;0.20;;;0.20;;
36593;SDS011;22603;47.900;8.146;2023-12-20T02:20:26;0.20;;;0.20;;
36593;SDS011;22603;47.900;8.146;2023-12-20T02:23:14;0.30;;;0.30;;
36593;SDS011;22603;47.900;8.146;2023-12-20T02:26:01;1.23;;;0.30;;
36593;SDS011;22603;47.900;8.146;2023-12-20T02:28:48;16.80;;;0.43;;
36593;SDS011;22603;47.900;8.146;2023-12-20T02:31:35;0.20;;;0.20;;
36593;SDS011;22603;47.900;8.146;2023-12-20T02:34:21;0.27;;;0.27;;
36593;SDS011;22603;47.900;8.146;2023-12-20T02:37:09;0.20;;;0.20;;
36593;SDS011;22603;47.900;8.146;2023-12-20T02:39:57;0.20;;;0.20;;
36593;SDS011;22603;47.900;8.146;2023-12-20T02:42:43;0.23;;;0.23;;
36593;SDS011;22603;47.900;8.146;2023-12-20T02:45:30;0.20;;;0.20;;
36593;SDS011;22603;47.900;8.146;2023-12-20T02:48:17;0.77;;;0.37;;
36593;SDS011;22603;47.900;8.146;2023-12-20T02:51:04;0.57;;;0.30;;
36593;SDS011;22603;47.900;8.146;2023-12-20T02:53:51;0.40;;;0.30;;
36593;SDS011;22603;47.900;8.146;2023-12-20T02:56:39;0.20;;;0.20;;
36593;SDS011;22603;47.900;8.146;2023-12-20T02:59:26;0.20;;;0.20;;
36593;SDS011;22603;47.900;8.146;2023-12-20T03:02:12;0.30;;;0.27;;
36593;SDS011;22603;47.900;8.146;2023-12-20T03:05:00;0.30;;;0.30;;
36593;SDS011;22603;47.900;8.146;2023-12-20T03:07:47;0.30;;;0.30;;
36593;SDS011;22603;47.900;8.146;2023-12-20T03:10:34;0.20;;;0.20;;
36593;SDS011;22603;47.900;8.146;2023-12-20T03:13:22;0.27;;;0.23;;
36593;SDS011;22603;47.900;8.146;2023-12-20T03:16:08;0.30;;;0.30;;
36593;SDS011;22603;47.900;8.146;2023-12-20T03:18:55;0.30;;;0.30;;
36593;SDS011;22603;47.900;8.146;2023-12-20T03:21:42;0.30;;;0.30;;
36593;SDS011;22603;47.900;8.146;2023-12-20T03:24:28;0.20;;;0.20;;
36593;SDS011;22603;47.900;8.146;2023-12-20T03:27:15;1.80;;;0.80;;
36593;SDS011;22603;47.900;8.146;2023-12-20T03:30:04;0.30;;;0.30;;
36593;SDS011;22603;47.900;8.146;2023-12-20T03:32:51;0.40;;;0.40;;
36593;SDS011;22603;47.900;8.146;2023-12-20T03:35:38;0.20;;;0.20;;
36593;SDS011;22603;47.900;8.146;2023-12-20T03:38:24;0.20;;;0.20;;
36593;SDS011;22603;47.900;8.146;2023-12-20T03:41:11;0.23;;;0.23;;
36593;SDS011;22603;47.900;8.146;2023-12-20T03:43:58;0.20;;;0.20;;
36593;SDS011;22603;47.900;8.146;2023-12-20T03:46:46;0.30;;;0.30;;
36593;SDS011;22603;47.900;8.146;2023-12-20T03:49:34;0.20;;;0.20;;
36593;SDS011;22603;47.900;8.146;2023-12-20T03:52:22;0.47;;;0.47;;
36593;SDS011;22603;47.900;8.146;2023-12-20T03:55:09;0.60;;;0.60;;
36593;SDS011;22603;47.900;8.146;2023-12-20T03:57:56;0.30;;;0.30;;
36593;SDS011;22603;47.900;8.146;2023-12-20T04:00:43;1.23;;;0.30;;
36593;SDS011;22603;47.900;8.146;2023-12-20T04:03:31;0.20;;;0.20;;
36593;SDS011;22603;47.900;8.146;2023-12-20T04:06:18;0.30;;;0.30;;
36593;SDS011;22603;47.900;8.146;2023-12-20T04:09:05;0.30;;;0.30;;
36593;SDS011;22603;47.900;8.146;2023-12-20T04:11:54;0.20;;;0.20;;
36593;SDS011;22603;47.900;8.146;2023-12-20T04:14:40;0.30;;;0.30;;
36593;SDS011;22603;47.900;8.146;2023-12-20T04:17:27;0.37;;;0.37;;
36593;SDS011;22603;47.900;8.146;2023-12-20T04:20:15;0.30;;;0.30;;
36593;SDS011;22603;47.900;8.146;2023-12-20T04:23:02;0.30;;;0.30;;
36593;SDS011;22603;47.900;8.146;2023-12-20T04:25:49;0.20;;;0.20;;
36593;SDS011;22603;47.900;8.146;2023-12-20T04:28:36;0.20;;;0.20;;
36593;SDS011;22603;47.900;8.146;2023-12-20T04:31:22;0.30;;;0.30;;
36593;SDS011;22603;47.900;8.146;2023-12-20T04:34:09;0.30;;;0.30;;
36593;SDS011;22603;47.900;8.146;2023-12-20T04:36:57;0.27;;;0.20;;
36593;SDS011;22603;47.900;8.146;2023-12-20T04:39:44;0.20;;;0.20;;
36593;SDS011;22603;47.900;8.146;2023-12-20T04:42:31;0.20;;;0.20;;
36593;SDS011;22603;47.900;8.146;2023-12-20T04:45:18;0.30;;;0.30;;
36593;SDS011;22603;47.900;8.146;2023-12-20T04:48:05;0.30;;;0.30;;
36593;SDS011;22603;47.900;8.146;2023-12-20T04:50:52;0.63;;;0.30;;
36593;SDS011;22603;47.900;8.146;2023-12-20T04:53:40;0.20;;;0.20;;
36593;SDS011;22603;47.900;8.146;2023-12-20T04:56:26;0.30;;;0.27;;
36593;SDS011;22603;47.900;8.146;2023-12-20T04:59:13;0.30;;;0.30;;
36593;SDS011;22603;47.900;8.146;2023-12-20T05:01:59;0.27;;;0.27;;
36593;SDS011;22603;47.900;8.146;2023-12-20T05:04:47;0.20;;;0.20;;
36593;SDS011;22603;47.900;8.146;2023-12-20T05:07:35;0.20;;;0.20;;
36593;SDS011;22603;47.900;8.146;2023-12-20T05:10:23;0.20;;;0.20;;
36593;SDS011;22603;47.900;8.146;2023-12-20T05:13:11;0.20;;;0.20;;
36593;SDS011;22603;47.900;8.146;2023-12-20T05:15:58;0.30;;;0.30;;
36593;SDS011;22603;47.900;8.146;2023-12-20T05:18:45;0.30;;;0.30;;
36593;SDS011;22603;47.900;8.146;2023-12-20T05:21:33;0.30;;;0.30;;
36593;SDS011;22603;47.900;8.146;2023-12-20T05:24:21;0.20;;;0.20;;
36593;SDS011;22603;47.900;8.146;2023-12-20T05:27:08;0.47;;;0.30;;
36593;SDS011;22603;47.900;8.146;2023-12-20T05:29:56;0.30;;;0.30;;
36593;SDS011;22603;47.900;8.146;2023-12-20T05:32:42;0.30;;;0.30;;
36593;SDS011;22603;47.900;8.146;2023-12-20T05:35:29;0.30;;;0.30;;
36593;SDS011;22603;47.900;8.146;2023-12-20T05:38:16;0.20;;;0.20;;
36593;SDS011;22603;47.900;8.146;2023-12-20T05:41:03;0.23;;;0.23;;
36593;SDS011;22603;47.900;8.146;2023-12-20T05:43:52;0.20;;;0.20;;
36593;SDS011;22603;47.900;8.146;2023-12-20T05:46:38;0.30;;;0.30;;
36593;SDS011;22603;47.900;8.146;2023-12-20T05:49:25;0.30;;;0.30;;
36593;SDS011;22603;47.900;8.146;2023-12-20T05:52:12;0.40;;;0.40;;
36593;SDS011;22603;47.900;8.146;2023-12-20T05:54:58;0.30;;;0.30;;
36593;SDS011;22603;47.900;8.146;2023-12-20T05:57:46;0.30;;;0.30;;
36593;SDS011;22603;47.900;8.146;2023-12-20T06:00:34;0.20;;;0.20;;
36593;SDS011;22603;47.900;8.146;2023-12-20T06:03:21;0.20;;;0.20;;
36593;SDS011;22603;47.900;8.146;2023-12-20T06:06:08;0.23;;;0.23;;
36593;SDS011;22603;47.900;8.146;2023-12-20T06:09:01;0.60;;;0.50;;
36593;SDS011;22603;47.900;8.146;2023-12-20T06:11:47;0.20;;;0.20;;
36593;SDS011;22603;47.900;8.146;2023-12-20T06:14:34;0.20;;;0.20;;
36593;SDS011;22603;47.900;8.146;2023-12-20T06:17:22;13.87;;;0.50;;
36593;SDS011;22603;47.900;8.146;2023-12-20T06:20:09;0.40;;;0.40;;
36593;SDS011;22603;47.900;8.146;2023-12-20T06:22:57;0.30;;;0.30;;
36593;SDS011;22603;47.900;8.146;2023-12-20T06:25:43;0.30;;;0.30;;
36593;SDS011;22603;47.900;8.146;2023-12-20T06:28:30;0.40;;;0.40;;
36593;SDS011;22603;47.900;8.146;2023-12-20T06:31:17;0.33;;;0.30;;
36593;SDS011;22603;47.900;8.146;2023-12-20T06:34:05;0.37;;;0.37;;
36593;SDS011;22603;47.900;8.146;2023-12-20T06:36:52;0.73;;;0.50;;
36593;SDS011;22603;47.900;8.146;2023-12-20T06:39:39;0.50;;;0.50;;
36593;SDS011;22603;47.900;8.146;2023-12-20T06:42:26;0.50;;;0.50;;
36593;SDS011;22603;47.900;8.146;2023-12-20T06:45:16;0.30;;;0.30;;
36593;SDS011;22603;47.900;8.146;2023-12-20T06:48:03;0.47;;;0.40;;
36593;SDS011;22603;47.900;8.146;2023-12-20T06:50:51;1.40;;;0.60;;
36593;SDS011;22603;47.900;8.146;2023-12-20T06:53:38;0.50;;;0.50;;
36593;SDS011;22603;47.900;8.146;2023-12-20T06:56:25;0.47;;;0.47;;
36593;SDS011;22603;47.900;8.146;2023-12-20T06:59:11;0.50;;;0.50;;
36593;SDS011;22603;47.900;8.146;2023-12-20T07:01:58;2.83;;;1.13;;
36593;SDS011;22603;47.900;8.146;2023-12-20T07:04:45;0.50;;;0.50;;
36593;SDS011;22603;47.900;8.146;2023-12-20T07:07:33;0.40;;;0.40;;
36593;SDS011;22603;47.900;8.146;2023-12-20T07:10:23;0.57;;;0.47;;
36593;SDS011;22603;47.900;8.146;2023-12-20T07:13:09;1.13;;;0.53;;
36593;SDS011;22603;47.900;8.146;2023-12-20T07:15:58;0.87;;;0.67;;
36593;SDS011;22603;47.900;8.146;2023-12-20T07:18:44;0.60;;;0.57;;
36593;SDS011;22603;47.900;8.146;2023-12-20T07:21:32;2.17;;;1.30;;
36593;SDS011;22603;47.900;8.146;2023-12-20T07:24:19;0.73;;;0.57;;
36593;SDS011;22603;47.900;8.146;2023-12-20T07:27:06;0.53;;;0.50;;
36593;SDS011;22603;47.900;8.146;2023-12-20T07:29:53;0.93;;;0.50;;
36593;SDS011;22603;47.900;8.146;2023-12-20T07:32:40;0.60;;;0.57;;
36593;SDS011;22603;47.900;8.146;2023-12-20T07:35:26;1.07;;;0.63;;
36593;SDS011;22603;47.900;8.146;2023-12-20T07:38:13;0.70;;;0.50;;
36593;SDS011;22603;47.900;8.146;2023-12-20T07:41:01;0.57;;;0.50;;
36593;SDS011;22603;47.900;8.146;2023-12-20T07:43:48;0.80;;;0.57;;
36593;SDS011;22603;47.900;8.146;2023-12-20T07:46:35;1.20;;;0.70;;
36593;SDS011;22603;47.900;8.146;2023-12-20T07:49:21;5.40;;;0.60;;
36593;SDS011;22603;47.900;8.146;2023-12-20T07:52:08;0.87;;;0.70;;
36593;SDS011;22603;47.900;8.146;2023-12-20T07:54:55;0.67;;;0.67;;
36593;SDS011;22603;47.900;8.146;2023-12-20T07:57:43;0.50;;;0.50;;
36593;SDS011;22603;47.900;8.146;2023-12-20T08:00:30;0.93;;;0.67;;
36593;SDS011;22603;47.900;8.146;2023-12-20T08:03:17;0.77;;;0.60;;
36593;SDS011;22603;47.900;8.146;2023-12-20T08:06:04;0.60;;;0.50;;
36593;SDS011;22603;47.900;8.146;2023-12-20T08:08:51;0.40;;;0.40;;
36593;SDS011;22603;47.900;8.146;2023-12-20T08:11:46;0.50;;;0.50;;
36593;SDS011;22603;47.900;8.146;2023-12-20T08:14:34;1.47;;;0.80;;
36593;SDS011;22603;47.900;8.146;2023-12-20T08:17:21;0.70;;;0.60;;
36593;SDS011;22603;47.900;8.146;2023-12-20T08:20:08;0.53;;;0.50;;
36593;SDS011;22603;47.900;8.146;2023-12-20T08:22:59;2.03;;;0.90;;
36593;SDS011;22603;47.900;8.146;2023-12-20T08:25:46;1.00;;;0.90;;
36593;SDS011;22603;47.900;8.146;2023-12-20T08:28:34;0.50;;;0.50;;
36593;SDS011;22603;47.900;8.146;2023-12-20T08:31:24;1.43;;;1.03;;
36593;SDS011;22603;47.900;8.146;2023-12-20T08:34:11;1.80;;;1.17;;
36593;SDS011;22603;47.900;8.146;2023-12-20T08:37:00;1.33;;;0.80;;
36593;SDS011;22603;47.900;8.146;2023-12-20T08:39:47;2.00;;;0.90;;
36593;SDS011;22603;47.900;8.146;2023-12-20T08:42:33;1.10;;;0.83;;
36593;SDS011;22603;47.900;8.146;2023-12-20T08:45:20;1.80;;;1.17;;
36593;SDS011;22603;47.900;8.146;2023-12-20T08:48:08;1.97;;;1.30;;
36593;SDS011;22603;47.900;8.146;2023-12-20T08:50:55;2.10;;;0.83;;
36593;SDS011;22603;47.900;8.146;2023-12-20T08:53:43;1.90;;;1.10;;
36593;SDS011;22603;47.900;8.146;2023-12-20T08:56:32;1.20;;;0.80;;
36593;SDS011;22603;47.900;8.146;2023-12-20T08:59:19;1.03;;;0.90;;
36593;SDS011;22603;47.900;8.146;2023-12-20T09:02:06;0.63;;;0.60;;
36593;SDS011;22603;47.900;8.146;2023-12-20T09:04:54;1.07;;;0.80;;
36593;SDS011;22603;47.900;8.146;2023-12-20T09:07:41;2.33;;;1.03;;
36593;SDS011;22603;47.900;8.146;2023-12-20T09:10:29;1.77;;;1.10;;
36593;SDS011;22603;47.900;8.146;2023-12-20T09:13:16;2.63;;;1.20;;
36593;SDS011;22603;47.900;8.146;2023-12-20T09:16:03;3.37;;;1.57;;
36593;SDS011;22603;47.900;8.146;2023-12-20T09:18:50;3.80;;;1.43;;
36593;SDS011;22603;47.900;8.146;2023-12-20T09:21:39;3.00;;;1.50;;
36593;SDS011;22603;47.900;8.146;2023-12-20T09:24:26;1.50;;;1.00;;
36593;SDS011;22603;47.900;8.146;2023-12-20T09:27:13;1.93;;;1.10;;
36593;SDS011;22603;47.900;8.146;2023-12-20T09:29:59;3.53;;;1.47;;
36593;SDS011;22603;47.900;8.146;2023-12-20T09:32:47;3.63;;;1.70;;
36593;SDS011;22603;47.900;8.146;2023-12-20T09:35:34;4.33;;;1.53;;
36593;SDS011;22603;47.900;8.146;2023-12-20T09:38:22;3.57;;;1.40;;
36593;SDS011;22603;47.900;8.146;2023-12-20T09:41:09;2.27;;;1.07;;
36593;SDS011;22603;47.900;8.146;2023-12-20T09:43:56;2.70;;;1.30;;
36593;SDS011;22603;47.900;8.146;2023-12-20T09:46:48;2.10;;;1.10;;
36593;SDS011;22603;47.900;8.146;2023-12-20T09:49:36;2.43;;;1.13;;
36593;SDS011;22603;47.900;8.146;2023-12-20T09:52:23;3.97;;;1.13;;
36593;SDS011;22603;47.900;8.146;2023-12-20T09:55:12;1.73;;;0.93;;
36593;SDS011;22603;47.900;8.146;2023-12-20T09:58:00;4.77;;;1.30;;
36593;SDS011;22603;47.900;8.146;2023-12-20T10:00:47;2.63;;;1.17;;
36593;SDS011;22603;47.900;8.146;2023-12-20T10:03:34;2.37;;;1.00;;
36593;SDS011;22603;47.900;8.146;2023-12-20T10:06:22;2.80;;;1.30;;
36593;SDS011;22603;47.900;8.146;2023-12-20T10:09:10;2.00;;;1.10;;
36593;SDS011;22603;47.900;8.146;2023-12-20T10:11:58;4.03;;;1.48;;
36593;SDS011;22603;47.900;8.146;2023-12-20T10:14:45;6.13;;;1.30;;
36593;SDS011;22603;47.900;8.146;2023-12-20T10:17:32;2.33;;;1.30;;
36593;SDS011;22603;47.900;8.146;2023-12-20T10:20:18;4.13;;;1.60;;
36593;SDS011;22603;47.900;8.146;2023-12-20T10:23:05;2.47;;;0.87;;
36593;SDS011;22603;47.900;8.146;2023-12-20T10:25:58;6.33;;;1.23;;
36593;SDS011;22603;47.900;8.146;2023-12-20T10:28:49;3.07;;;0.90;;
36593;SDS011;22603;47.900;8.146;2023-12-20T10:31:38;2.17;;;1.10;;
36593;SDS011;22603;47.900;8.146;2023-12-20T10:34:24;3.40;;;1.33;;
36593;SDS011;22603;47.900;8.146;2023-12-20T10:37:12;4.80;;;1.80;;
36593;SDS011;22603;47.900;8.146;2023-12-20T10:39:59;6.70;;;2.10;;
36593;SDS011;22603;47.900;8.146;2023-12-20T10:42:48;7.27;;;2.53;;
36593;SDS011;22603;47.900;8.146;2023-12-20T10:45:38;5.67;;;2.30;;
36593;SDS011;22603;47.900;8.146;2023-12-20T10:48:25;10.20;;;3.20;;
36593;SDS011;22603;47.900;8.146;2023-12-20T10:51:17;8.63;;;2.80;;
36593;SDS011;22603;47.900;8.146;2023-12-20T10:54:05;5.77;;;2.30;;
36593;SDS011;22603;47.900;8.146;2023-12-20T10:56:54;8.60;;;2.80;;
36593;SDS011;22603;47.900;8.146;2023-12-20T10:59:42;7.33;;;2.50;;
36593;SDS011;22603;47.900;8.146;2023-12-20T11:02:36;17.77;;;2.40;;
36593;SDS011;22603;47.900;8.146;2023-12-20T11:05:28;5.00;;;2.10;;
36593;SDS011;22603;47.900;8.146;2023-12-20T11:08:23;5.60;;;2.40;;
36593;SDS011;22603;47.900;8.146;2023-12-20T11:11:15;5.67;;;2.30;;
36593;SDS011;22603;47.900;8.146;2023-12-20T11:14:14;9.63;;;2.67;;
36593;SDS011;22603;47.900;8.146;2023-12-20T11:17:06;7.53;;;2.77;;
36593;SDS011;22603;47.900;8.146;2023-12-20T11:20:08;8.13;;;2.40;;
36593;SDS011;22603;47.900;8.146;2023-12-20T11:22:59;6.43;;;2.10;;
36593;SDS011;22603;47.900;8.146;2023-12-20T11:25:47;5.87;;;2.40;;
36593;SDS011;22603;47.900;8.146;2023-12-20T11:28:34;5.37;;;2.20;;
36593;SDS011;22603;47.900;8.146;2023-12-20T11:31:21;6.57;;;2.70;;
36593;SDS011;22603;47.900;8.146;2023-12-20T11:34:12;8.27;;;1.83;;
36593;SDS011;22603;47.900;8.146;2023-12-20T11:37:02;5.97;;;2.00;;
36593;SDS011;22603;47.900;8.146;2023-12-20T11:39:53;4.77;;;1.87;;
36593;SDS011;22603;47.900;8.146;2023-12-20T11:42:41;5.27;;;2.27;;
36593;SDS011;22603;47.900;8.146;2023-12-20T11:45:29;6.03;;;2.20;;
36593;SDS011;22603;47.900;8.146;2023-12-20T11:48:17;7.00;;;2.40;;
36593;SDS011;22603;47.900;8.146;2023-12-20T11:51:08;7.97;;;2.17;;
36593;SDS011;22603;47.900;8.146;2023-12-20T11:53:57;4.37;;;1.90;;
36593;SDS011;22603;47.900;8.146;2023-12-20T11:56:44;5.53;;;2.23;;
36593;SDS011;22603;47.900;8.146;2023-12-20T11:59:31;4.97;;;2.00;;
36593;SDS011;22603;47.900;8.146;2023-12-20T12:02:18;5.63;;;2.30;;
36593;SDS011;22603;47.900;8.146;2023-12-20T12:05:05;6.60;;;2.60;;
36593;SDS011;22603;47.900;8.146;2023-12-20T12:07:53;3.63;;;1.57;;
36593;SDS011;22603;47.900;8.146;2023-12-20T12:10:41;7.57;;;2.23;;
36593;SDS011;22603;47.900;8.146;2023-12-20T12:13:28;7.23;;;2.10;;
36593;SDS011;22603;47.900;8.146;2023-12-20T12:16:16;4.63;;;2.03;;
36593;SDS011;22603;47.900;8.146;2023-12-20T12:19:03;5.33;;;2.23;;
36593;SDS011;22603;47.900;8.146;2023-12-20T12:21:50;6.10;;;2.33;;
36593;SDS011;22603;47.900;8.146;2023-12-20T12:24:37;5.37;;;2.23;;
36593;SDS011;22603;47.900;8.146;2023-12-20T12:27:26;11.27;;;2.60;;
36593;SDS011;22603;47.900;8.146;2023-12-20T12:30:15;8.67;;;1.90;;
36593;SDS011;22603;47.900;8.146;2023-12-20T12:33:03;6.13;;;2.50;;
36593;SDS011;22603;47.900;8.146;2023-12-20T12:35:50;5.57;;;2.20;;
36593;SDS011;22603;47.900;8.146;2023-12-20T12:38:37;8.73;;;2.20;;
36593;SDS011;22603;47.900;8.146;2023-12-20T12:41:24;6.37;;;2.50;;
36593;SDS011;22603;47.900;8.146;2023-12-20T12:44:12;11.60;;;2.23;;
36593;SDS011;22603;47.900;8.146;2023-12-20T12:47:02;5.10;;;2.27;;
36593;SDS011;22603;47.900;8.146;2023-12-20T12:49:51;7.07;;;2.40;;
36593;SDS011;22603;47.900;8.146;2023-12-20T12:52:39;7.57;;;1.90;;
36593;SDS011;22603;47.900;8.146;2023-12-20T12:55:25;5.87;;;1.80;;
36593;SDS011;22603;47.900;8.146;2023-12-20T12:58:12;7.83;;;2.10;;
36593;SDS011;22603;47.900;8.146;2023-12-20T13:01:00;6.20;;;2.30;;
36593;SDS011;22603;47.900;8.146;2023-12-20T13:03:48;5.40;;;2.07;;
36593;SDS011;22603;47.900;8.146;2023-12-20T13:06:35;7.53;;;2.10;;
36593;SDS011;22603;47.900;8.146;2023-12-20T13:09:22;5.27;;;1.90;;
36593;SDS011;22603;47.900;8.146;2023-12-20T13:12:08;4.23;;;1.70;;
36593;SDS011;22603;47.900;8.146;2023-12-20T13:14:55;6.43;;;2.20;;
36593;SDS011;22603;47.900;8.146;2023-12-20T13:17:43;9.57;;;2.10;;
36593;SDS011;22603;47.900;8.146;2023-12-20T13:20:32;6.30;;;1.80;;
36593;SDS011;22603;47.900;8.146;2023-12-20T13:23:19;4.57;;;1.67;;
36593;SDS011;22603;47.900;8.146;2023-12-20T13:26:06;5.47;;;2.10;;
36593;SDS011;22603;47.900;8.146;2023-12-20T13:28:53;11.50;;;2.13;;
36593;SDS011;22603;47.900;8.146;2023-12-20T13:31:40;3.70;;;1.30;;
36593;SDS011;22603;47.900;8.146;2023-12-20T13:34:28;6.43;;;2.30;;
36593;SDS011;22603;47.900;8.146;2023-12-20T13:37:15;6.40;;;1.97;;
36593;SDS011;22603;47.900;8.146;2023-12-20T13:40:03;8.57;;;2.43;;
36593;SDS011;22603;47.900;8.146;2023-12-20T13:42:51;5.23;;;1.47;;
36593;SDS011;22603;47.900;8.146;2023-12-20T13:45:40;4.40;;;1.80;;
36593;SDS011;22603;47.900;8.146;2023-12-20T13:48:26;8.17;;;2.63;;
36593;SDS011;22603;47.900;8.146;2023-12-20T13:51:14;3.60;;;1.53;;
36593;SDS011;22603;47.900;8.146;2023-12-20T13:54:01;2.57;;;1.03;;
36593;SDS011;22603;47.900;8.146;2023-12-20T13:56:48;2.23;;;1.33;;
36593;SDS011;22603;47.900;8.146;2023-12-20T13:59:52;3.23;;;1.33;;
36593;SDS011;22603;47.900;8.146;2023-12-20T14:02:39;5.13;;;1.40;;
36593;SDS011;22603;47.900;8.146;2023-12-20T14:05:26;4.90;;;1.83;;
36593;SDS011;22603;47.900;8.146;2023-12-20T14:08:15;14.10;;;1.30;;
36593;SDS011;22603;47.900;8.146;2023-12-20T14:11:05;10.33;;;1.13;;
36593;SDS011;22603;47.900;8.146;2023-12-20T14:13:51;7.80;;;0.90;;
36593;SDS011;22603;47.900;8.146;2023-12-20T14:16:42;2.73;;;1.00;;
36593;SDS011;22603;47.900;8.146;2023-12-20T14:19:30;2.80;;;1.20;;
36593;SDS011;22603;47.900;8.146;2023-12-20T14:22:17;5.27;;;1.70;;
36593;SDS011;22603;47.900;8.146;2023-12-20T14:25:05;4.63;;;1.27;;
36593;SDS011;22603;47.900;8.146;2023-12-20T14:27:53;2.27;;;1.00;;
36593;SDS011;22603;47.900;8.146;2023-12-20T14:30:40;2.67;;;1.00;;
36593;SDS011;22603;47.900;8.146;2023-12-20T14:33:27;4.20;;;1.57;;
36593;SDS011;22603;47.900;8.146;2023-12-20T14:36:14;4.37;;;1.43;;
36593;SDS011;22603;47.900;8.146;2023-12-20T14:39:03;4.70;;;1.30;;
36593;SDS011;22603;47.900;8.146;2023-12-20T14:41:52;5.63;;;1.20;;
36593;SDS011;22603;47.900;8.146;2023-12-20T14:44:39;3.70;;;1.63;;
36593;SDS011;22603;47.900;8.146;2023-12-20T14:47:26;2.80;;;1.30;;
36593;SDS011;22603;47.900;8.146;2023-12-20T14:50:13;5.47;;;1.40;;
36593;SDS011;22603;47.900;8.146;2023-12-20T14:53:04;6.20;;;1.70;;
36593;SDS011;22603;47.900;8.146;2023-12-20T14:55:50;1.23;;;0.83;;
36593;SDS011;22603;47.900;8.146;2023-12-20T14:58:38;4.03;;;0.97;;
36593;SDS011;22603;47.900;8.146;2023-12-20T15:01:25;2.43;;;1.00;;
36593;SDS011;22603;47.900;8.146;2023-12-20T15:04:12;5.47;;;1.13;;
36593;SDS011;22603;47.900;8.146;2023-12-20T15:07:00;1.83;;;0.80;;
36593;SDS011;22603;47.900;8.146;2023-12-20T15:09:49;2.23;;;1.03;;
36593;SDS011;22603;47.900;8.146;2023-12-20T15:12:36;3.10;;;1.27;;
36593;SDS011;22603;47.900;8.146;2023-12-20T15:15:24;1.93;;;0.77;;
36593;SDS011;22603;47.900;8.146;2023-12-20T15:18:13;4.40;;;1.50;;
36593;SDS011;22603;47.900;8.146;2023-12-20T15:20:59;1.77;;;0.90;;
36593;SDS011;22603;47.900;8.146;2023-12-20T15:23:46;2.13;;;1.07;;
36593;SDS011;22603;47.900;8.146;2023-12-20T15:26:37;4.57;;;1.37;;
36593;SDS011;22603;47.900;8.146;2023-12-20T15:29:24;3.50;;;1.30;;
36593;SDS011;22603;47.900;8.146;2023-12-20T15:32:12;11.93;;;1.10;;
36593;SDS011;22603;47.900;8.146;2023-12-20T15:34:59;5.55;;;1.70;;
36593;SDS011;22603;47.900;8.146;2023-12-20T15:37:46;1.70;;;1.00;;
36593;SDS011;22603;47.900;8.146;2023-12-20T15:40:33;6.17;;;1.40;;
36593;SDS011;22603;47.900;8.146;2023-12-20T15:43:21;6.30;;;0.93;;
36593;SDS011;22603;47.900;8.146;2023-12-20T15:46:09;5.57;;;1.30;;
36593;SDS011;22603;47.900;8.146;2023-12-20T15:48:57;2.67;;;1.00;;
36593;SDS011;22603;47.900;8.146;2023-12-20T15:51:44;3.63;;;1.40;;
36593;SDS011;22603;47.900;8.146;2023-12-20T15:54:31;4.00;;;1.40;;
36593;SDS011;22603;47.900;8.146;2023-12-20T15:57:18;1.60;;;0.80;;
36593;SDS011;22603;47.900;8.146;2023-12-20T16:00:09;2.97;;;1.00;;
36593;SDS011;22603;47.900;8.146;2023-12-20T16:02:56;3.80;;;1.10;;
36593;SDS011;22603;47.900;8.146;2023-12-20T16:05:44;1.13;;;0.70;;
36593;SDS011;22603;47.900;8.146;2023-12-20T16:08:31;1.40;;;0.83;;
36593;SDS011;22603;47.900;8.146;2023-12-20T16:11:18;1.87;;;0.87;;
36593;SDS011;22603;47.900;8.146;2023-12-20T16:14:05;2.00;;;0.90;;
36593;SDS011;22603;47.900;8.146;2023-12-20T16:16:54;0.60;;;0.50;;
36593;SDS011;22603;47.900;8.146;2023-12-20T16:19:41;8.27;;;0.90;;
36593;SDS011;22603;47.900;8.146;2023-12-20T16:22:30;1.10;;;0.70;;
36593;SDS011;22603;47.900;8.146;2023-12-20T16:25:17;1.30;;;0.63;;
36593;SDS011;22603;47.900;8.146;2023-12-20T16:28:04;4.43;;;0.87;;
36593;SDS011;22603;47.900;8.146;2023-12-20T16:30:51;2.50;;;1.07;;
36593;SDS011;22603;47.900;8.146;2023-12-20T16:33:41;2.00;;;0.80;;
36593;SDS011;22603;47.900;8.146;2023-12-20T16:36:28;3.80;;;1.07;;
36593;SDS011;22603;47.900;8.146;2023-12-20T16:39:36;5.77;;;1.50;;
36593;SDS011;22603;47.900;8.146;2023-12-20T16:42:23;2.37;;;1.00;;
36593;SDS011;22603;47.900;8.146;2023-12-20T16:45:10;1.87;;;0.90;;
36593;SDS011;22603;47.900;8.146;2023-12-20T16:47:56;2.03;;;0.83;;
36593;SDS011;22603;47.900;8.146;2023-12-20T16:50:43;1.90;;;0.90;;